Time;durP1;ratioP1;P1;durP2;ratioP2;P2;SDS_P1;SDS_P2;PMS_P1;PMS_P2;Temp;Humidity;BMP_temperature;BMP_pressure;BME280_temperature;BME280_humidity;BME280_pressure;Samples;Min_cycle;Max_cycle;Signal;HPM_P1;HPM_P2
2022/12/25 00:02:14;;;;;;;;;;;11.10;99.90;;;;;;5032042;28;19931;-61
2022/12/25 00:04:42;;;;;;;;;;;11.10;99.90;;;;;;5031691;28;19978;-61
2022/12/25 00:07:11;;;;;;;;;;;11.10;99.90;;;;;;5031611;28;19925;-62
2022/12/25 00:09:39;;;;;;;;;;;11.10;99.90;;;;;;5030759;28;20021;-61
2022/12/25 00:12:06;;;;;;;;;;;11.00;99.90;;;;;;5030867;28;19931;-62
2022/12/25 00:14:34;;;;;;;;;;;11.00;99.90;;;;;;5031523;28;19931;-61
2022/12/25 00:17:02;;;;;;;;;;;10.80;99.90;;;;;;5031884;28;20020;-61
2022/12/25 00:19:29;;;;;;;;;;;10.60;99.90;;;;;;5031530;28;19931;-61
2022/12/25 00:21:57;;;;;;;;;;;10.30;99.90;;;;;;5031466;28;19933;-61
2022/12/25 00:24:26;;;;;;;;;;;10.10;99.90;;;;;;5031134;28;19944;-61
2022/12/25 00:26:54;;;;;;;;;;;9.90;99.90;;;;;;5022796;28;19931;-61
2022/12/25 00:29:21;;;;;;;;;;;9.90;99.90;;;;;;5031516;28;19933;-61
2022/12/25 00:31:49;;;;;;;;;;;10.00;99.90;;;;;;5030801;28;20349;-62
2022/12/25 00:34:17;;;;;;;;;;;10.10;99.90;;;;;;5031256;28;20283;-63
2022/12/25 00:36:45;;;;;;;;;;;10.20;99.90;;;;;;5031432;28;20027;-62
2022/12/25 00:39:12;;;;;;;;;;;10.20;99.90;;;;;;5061024;22;19925;-72
2022/12/25 00:44:26;;;;;;;;;;;10.30;99.90;;;;;;4970063;28;19930;-70
2022/12/25 00:46:54;;;;;;;;;;;10.30;99.90;;;;;;4969851;28;19965;-71
2022/12/25 00:49:22;;;;;;;;;;;10.20;99.90;;;;;;4955700;28;19976;-71
2022/12/25 00:51:50;;;;;;;;;;;10.20;99.90;;;;;;4950057;28;20341;-71
2022/12/25 00:54:18;;;;;;;;;;;10.10;99.90;;;;;;4961920;28;20319;-71
2022/12/25 00:56:47;;;;;;;;;;;9.90;99.90;;;;;;5028860;28;19931;-71
2022/12/25 00:59:15;;;;;;;;;;;9.80;99.90;;;;;;5040734;28;20446;-73
2022/12/25 01:01:43;;;;;;;;;;;9.70;99.90;;;;;;4969275;28;20041;-71
2022/12/25 01:04:11;;;;;;;;;;;9.70;99.90;;;;;;4969764;28;19927;-71
2022/12/25 01:06:39;;;;;;;;;;;9.60;99.90;;;;;;4953139;28;19926;-71
2022/12/25 01:11:54;;;;;;;;;;;9.60;99.90;;;;;;4949923;28;19930;-72
2022/12/25 01:14:22;;;;;;;;;;;9.60;99.90;;;;;;4950645;28;19927;-71
2022/12/25 01:16:49;;;;;;;;;;;9.60;99.90;;;;;;4951286;28;19976;-71
2022/12/25 01:19:17;;;;;;;;;;;9.60;99.90;;;;;;4958214;28;19984;-71
2022/12/25 01:21:45;;;;;;;;;;;9.70;99.90;;;;;;4967587;28;19926;-71
2022/12/25 01:24:12;;;;;;;;;;;9.80;99.90;;;;;;4957164;28;19969;-71
2022/12/25 01:26:40;;;;;;;;;;;9.90;99.90;;;;;;5028428;28;19924;-72
2022/12/25 01:29:09;;;;;;;;;;;9.90;99.90;;;;;;5070931;28;19935;-72
2022/12/25 01:31:37;;;;;;;;;;;10.00;99.90;;;;;;5070456;28;19929;-72
2022/12/25 01:34:05;;;;;;;;;;;10.00;99.90;;;;;;5027678;28;19948;-72
2022/12/25 01:36:32;;;;;;;;;;;10.00;99.90;;;;;;4968229;28;19933;-72
2022/12/25 01:39:00;;;;;;;;;;;10.00;99.90;;;;;;4959951;28;20013;-72
2022/12/25 01:41:28;;;;;;;;;;;10.00;99.90;;;;;;4971042;28;19934;-72
2022/12/25 01:43:57;;;;;;;;;;;10.00;99.90;;;;;;4972600;28;19932;-72
2022/12/25 01:46:26;;;;;;;;;;;9.90;99.90;;;;;;4972355;28;20029;-72
2022/12/25 01:48:55;;;;;;;;;;;9.60;99.90;;;;;;4972235;28;19973;-71
2022/12/25 01:51:25;;;;;;;;;;;9.50;99.90;;;;;;4962224;28;20018;-71
2022/12/25 01:53:53;;;;;;;;;;;9.40;99.90;;;;;;4956940;28;20030;-72
2022/12/25 01:56:20;;;;;;;;;;;9.40;99.90;;;;;;5015595;28;20044;-72
2022/12/25 01:58:48;;;;;;;;;;;9.60;99.90;;;;;;5074120;28;20019;-72
2022/12/25 02:01:16;;;;;;;;;;;9.60;99.90;;;;;;5073381;28;20447;-71
2022/12/25 02:03:45;;;;;;;;;;;9.70;99.90;;;;;;5074152;28;19964;-71
2022/12/25 02:06:13;;;;;;;;;;;9.70;99.90;;;;;;5073932;28;20015;-71
2022/12/25 02:08:41;;;;;;;;;;;9.80;99.90;;;;;;5002872;28;19968;-71
2022/12/25 02:11:55;;;;;;;;;;;9.90;99.90;;;;;;4971612;28;20025;-72
2022/12/25 02:13:57;;;;;;;;;;;9.80;99.90;;;;;;4961143;28;20025;-72
2022/12/25 02:16:28;;;;;;;;;;;9.90;99.90;;;;;;4952672;28;19927;-72
2022/12/25 02:19:00;;;;;;;;;;;9.90;99.90;;;;;;4952742;28;19927;-73
2022/12/25 02:21:38;;;;;;;;;;;9.80;99.90;;;;;;4952201;29;20467;-72
2022/12/25 02:24:11;;;;;;;;;;;9.60;99.90;;;;;;4958123;28;19937;-72
2022/12/25 02:26:55;;;;;;;;;;;9.70;99.90;;;;;;5005927;28;20017;-72
2022/12/25 02:29:26;;;;;;;;;;;9.70;99.90;;;;;;4971991;28;20005;-71
2022/12/25 02:31:58;;;;;;;;;;;9.60;99.90;;;;;;4953438;28;20438;-71
2022/12/25 02:34:31;;;;;;;;;;;9.70;99.90;;;;;;4952856;28;20312;-73
2022/12/25 02:37:03;;;;;;;;;;;9.70;99.90;;;;;;4952291;29;19930;-72
2022/12/25 02:42:22;;;;;;;;;;;9.60;99.90;;;;;;4952514;29;19930;-71
2022/12/25 03:07:14;;;;;;;;;;;9.30;99.90;;;;;;4951886;29;20421;-71
2022/12/25 03:12:42;;;;;;;;;;;9.60;99.90;;;;;;4956347;28;20425;-73
2022/12/25 03:18:00;;;;;;;;;;;9.60;99.90;;;;;;4970529;28;19965;-73
2022/12/25 03:28:46;;;;;;;;;;;9.60;99.90;;;;;;4952061;28;20013;-73
2022/12/25 03:31:15;;;;;;;;;;;9.60;99.90;;;;;;5011456;28;19972;-71
2022/12/25 03:36:59;;;;;;;;;;;9.80;99.90;;;;;;5072329;28;19938;-71
2022/12/25 03:42:36;;;;;;;;;;;9.90;99.90;;;;;;4970935;28;20472;-71
2022/12/25 04:37:42;;;;;;;;;;;10.60;99.90;;;;;;5071566;28;19975;-71
2022/12/25 04:40:11;;;;;;;;;;;10.70;99.90;;;;;;4969096;28;20365;-72
2022/12/25 04:42:39;;;;;;;;;;;10.70;99.90;;;;;;4969708;28;20020;-71
2022/12/25 04:45:08;;;;;;;;;;;10.80;99.90;;;;;;4969595;28;19958;-72
2022/12/25 04:47:36;;;;;;;;;;;10.90;99.90;;;;;;4953677;28;19937;-72
2022/12/25 04:50:04;;;;;;;;;;;10.90;99.90;;;;;;4950030;28;19933;-72
2022/12/25 04:52:34;;;;;;;;;;;10.90;99.90;;;;;;4950921;29;19962;-71
2022/12/25 04:55:01;;;;;;;;;;;11.00;99.90;;;;;;4950872;28;20385;-72
2022/12/25 04:57:31;;;;;;;;;;;11.00;99.90;;;;;;4955121;28;19930;-71
2022/12/25 04:59:58;;;;;;;;;;;11.00;99.90;;;;;;5001458;28;19938;-69
2022/12/25 05:02:26;;;;;;;;;;;10.90;99.90;;;;;;5029579;28;20344;-70
2022/12/25 05:04:54;;;;;;;;;;;11.00;99.90;;;;;;4952845;28;19988;-71
2022/12/25 05:07:22;;;;;;;;;;;10.90;99.90;;;;;;4950347;29;20017;-71
2022/12/25 05:09:50;;;;;;;;;;;10.90;99.90;;;;;;4949661;29;20100;-71
2022/12/25 05:12:17;;;;;;;;;;;11.00;99.90;;;;;;4950435;28;20033;-72
2022/12/25 05:14:46;;;;;;;;;;;11.10;99.90;;;;;;4958964;28;19968;-71
2022/12/25 05:17:14;;;;;;;;;;;11.00;99.90;;;;;;4953119;28;20609;-72
2022/12/25 05:19:42;;;;;;;;;;;11.00;99.90;;;;;;4953091;28;19949;-71
2022/12/25 05:22:10;;;;;;;;;;;11.00;99.90;;;;;;4971422;28;19926;-71
2022/12/25 05:24:37;;;;;;;;;;;11.00;99.90;;;;;;4969509;28;20417;-71
2022/12/25 05:27:05;;;;;;;;;;;11.00;99.90;;;;;;4966813;28;19958;-71
2022/12/25 05:29:33;;;;;;;;;;;11.10;99.90;;;;;;4965265;28;19994;-71
2022/12/25 05:32:02;;;;;;;;;;;11.10;99.90;;;;;;4983786;28;19937;-71
2022/12/25 05:34:29;;;;;;;;;;;11.20;99.90;;;;;;4969528;28;19926;-72
2022/12/25 05:36:57;;;;;;;;;;;11.20;99.90;;;;;;4955484;28;20485;-71
2022/12/25 05:39:25;;;;;;;;;;;11.30;99.90;;;;;;4970437;28;20409;-70
2022/12/25 05:41:52;;;;;;;;;;;11.30;99.90;;;;;;4966657;28;19934;-70
2022/12/25 05:44:20;;;;;;;;;;;11.30;99.90;;;;;;4980819;28;19944;-71
2022/12/25 05:46:48;;;;;;;;;;;11.40;99.90;;;;;;4970174;28;20013;-71
2022/12/25 05:49:17;;;;;;;;;;;11.40;99.90;;;;;;4953793;28;19949;-72
2022/12/25 05:51:44;;;;;;;;;;;11.40;99.90;;;;;;4952420;29;19966;-72
2022/12/25 05:54:12;;;;;;;;;;;11.40;99.90;;;;;;4957735;28;19932;-71
2022/12/25 05:56:40;;;;;;;;;;;11.30;99.90;;;;;;4962941;28;20013;-71
2022/12/25 05:59:08;;;;;;;;;;;11.20;99.90;;;;;;4972333;28;19933;-72
2022/12/25 06:01:35;;;;;;;;;;;11.30;99.90;;;;;;5023174;28;20409;-72
2022/12/25 06:04:03;;;;;;;;;;;11.30;99.90;;;;;;4952790;29;19934;-73
2022/12/25 06:06:40;;;;;;;;;;;11.30;99.90;;;;;;4952895;29;19926;-71
2022/12/25 06:09:08;;;;;;;;;;;11.30;99.90;;;;;;4970176;28;19932;-72
2022/12/25 06:11:36;;;;;;;;;;;11.30;99.90;;;;;;4963189;28;20352;-72
2022/12/25 06:14:03;;;;;;;;;;;11.20;99.90;;;;;;4952512;29;19926;-71
2022/12/25 06:16:31;;;;;;;;;;;11.20;99.90;;;;;;4952476;28;19930;-72
2022/12/25 06:19:04;;;;;;;;;;;11.20;99.90;;;;;;4952643;28;20327;-72
2022/12/25 06:21:32;;;;;;;;;;;11.20;99.90;;;;;;4951890;29;20408;-71
2022/12/25 06:24:02;;;;;;;;;;;11.20;99.90;;;;;;4952377;29;20017;-72
2022/12/25 06:26:29;;;;;;;;;;;11.10;99.90;;;;;;4952343;29;19934;-72
2022/12/25 06:28:57;;;;;;;;;;;11.10;99.90;;;;;;4963277;28;19969;-72
2022/12/25 06:31:25;;;;;;;;;;;11.10;99.90;;;;;;5021863;28;20327;-72
2022/12/25 06:33:53;;;;;;;;;;;11.10;99.90;;;;;;4959610;28;19934;-71
2022/12/25 06:36:22;;;;;;;;;;;11.10;99.90;;;;;;4966053;28;19926;-72
2022/12/25 06:38:50;;;;;;;;;;;11.00;99.90;;;;;;4971055;28;19932;-72
2022/12/25 06:41:21;;;;;;;;;;;11.00;99.90;;;;;;4971905;28;20383;-72
2022/12/25 06:43:49;;;;;;;;;;;10.90;99.90;;;;;;4971312;28;19975;-71
2022/12/25 06:46:17;;;;;;;;;;;11.00;99.90;;;;;;4957431;28;19933;-71
2022/12/25 06:48:48;;;;;;;;;;;10.80;99.90;;;;;;4952006;28;20014;-75
2022/12/25 06:51:16;;;;;;;;;;;10.70;99.90;;;;;;4951511;29;20453;-72
2022/12/25 06:53:43;;;;;;;;;;;10.60;99.90;;;;;;4952286;29;20018;-72
2022/12/25 06:56:17;;;;;;;;;;;10.50;99.90;;;;;;4952033;29;19930;-73
2022/12/25 06:58:47;;;;;;;;;;;10.40;99.90;;;;;;4951463;29;19996;-73
2022/12/25 07:01:17;;;;;;;;;;;10.20;99.90;;;;;;4978360;28;19926;-73
2022/12/25 07:03:46;;;;;;;;;;;10.00;99.90;;;;;;4971306;28;19926;-73
2022/12/25 07:06:14;;;;;;;;;;;10.00;99.90;;;;;;4971310;28;19926;-72
2022/12/25 07:08:42;;;;;;;;;;;9.90;99.90;;;;;;4970827;28;19936;-72
2022/12/25 07:11:10;;;;;;;;;;;9.90;99.90;;;;;;4970028;28;20024;-73
2022/12/25 07:13:37;;;;;;;;;;;9.90;99.90;;;;;;4971431;28;19926;-72
2022/12/25 07:16:07;;;;;;;;;;;9.90;99.90;;;;;;4970575;28;19926;-73
2022/12/25 07:18:35;;;;;;;;;;;9.90;99.90;;;;;;4959124;28;19926;-73
2022/12/25 07:21:06;;;;;;;;;;;9.90;99.90;;;;;;4970080;28;19988;-73
2022/12/25 07:23:34;;;;;;;;;;;9.90;99.90;;;;;;4970865;28;20113;-73
2022/12/25 07:26:03;;;;;;;;;;;9.90;99.90;;;;;;4964836;28;19953;-72
2022/12/25 07:28:32;;;;;;;;;;;10.00;99.90;;;;;;4970736;28;19937;-72
2022/12/25 07:31:02;;;;;;;;;;;9.90;99.90;;;;;;5041431;28;19963;-73
2022/12/25 07:33:31;;;;;;;;;;;9.90;99.90;;;;;;4962450;28;19926;-73
2022/12/25 07:35:59;;;;;;;;;;;9.90;99.90;;;;;;4954523;28;20485;-74
2022/12/25 07:38:27;;;;;;;;;;;9.80;99.90;;;;;;4953849;28;19936;-73
2022/12/25 07:40:54;;;;;;;;;;;9.80;99.90;;;;;;4950706;29;20021;-73
2022/12/25 07:43:22;;;;;;;;;;;9.60;99.90;;;;;;4951261;29;20024;-73
2022/12/25 07:45:53;;;;;;;;;;;9.60;99.90;;;;;;4951213;29;19926;-73
2022/12/25 07:48:21;;;;;;;;;;;9.60;99.90;;;;;;4956929;28;19926;-73
2022/12/25 07:50:54;;;;;;;;;;;9.60;99.90;;;;;;4969415;28;20367;-72
2022/12/25 07:53:22;;;;;;;;;;;9.60;99.90;;;;;;4964234;28;20043;-72
2022/12/25 07:55:55;;;;;;;;;;;9.60;99.90;;;;;;4965705;28;20044;-73
2022/12/25 07:58:23;;;;;;;;;;;9.60;99.90;;;;;;4970448;28;19926;-73
2022/12/25 08:00:51;;;;;;;;;;;9.60;99.90;;;;;;5010614;28;19965;-73
2022/12/25 08:03:19;;;;;;;;;;;9.70;99.90;;;;;;4974946;28;19996;-73
2022/12/25 08:05:47;;;;;;;;;;;9.80;99.90;;;;;;4970492;28;20036;-72
2022/12/25 08:08:16;;;;;;;;;;;9.90;99.90;;;;;;4970300;28;19952;-73
2022/12/25 08:10:47;;;;;;;;;;;9.70;99.90;;;;;;4960411;28;19934;-73
2022/12/25 08:13:15;;;;;;;;;;;9.70;99.90;;;;;;4950891;28;20014;-74
2022/12/25 08:15:42;;;;;;;;;;;9.70;99.90;;;;;;4961765;28;20635;-74
2022/12/25 08:18:10;;;;;;;;;;;9.70;99.90;;;;;;4969684;28;19960;-74
2022/12/25 08:20:38;;;;;;;;;;;9.70;99.90;;;;;;4969000;28;20291;-74
2022/12/25 08:23:05;;;;;;;;;;;9.60;99.90;;;;;;4965699;28;19926;-73
2022/12/25 08:25:34;;;;;;;;;;;9.60;99.90;;;;;;4956633;28;20326;-73
2022/12/25 08:28:02;;;;;;;;;;;9.60;99.90;;;;;;4958389;28;19931;-73
2022/12/25 08:30:30;;;;;;;;;;;9.60;99.90;;;;;;5002841;28;20374;-73
2022/12/25 08:32:58;;;;;;;;;;;9.60;99.90;;;;;;5020542;28;19930;-73
2022/12/25 08:35:25;;;;;;;;;;;9.60;99.90;;;;;;4956115;28;19927;-75
2022/12/25 08:37:53;;;;;;;;;;;9.60;99.90;;;;;;4950603;29;20530;-73
2022/12/25 08:40:21;;;;;;;;;;;9.70;99.90;;;;;;4949908;28;20366;-73
2022/12/25 08:42:50;;;;;;;;;;;9.70;99.90;;;;;;4950406;29;19958;-73
2022/12/25 08:45:17;;;;;;;;;;;9.60;99.90;;;;;;4963751;28;19980;-73
2022/12/25 08:47:45;;;;;;;;;;;9.70;99.90;;;;;;4985504;28;20025;-72
2022/12/25 08:50:13;;;;;;;;;;;9.70;99.90;;;;;;4960264;28;19933;-74
2022/12/25 08:52:41;;;;;;;;;;;9.60;99.90;;;;;;4953827;29;19926;-73
2022/12/25 08:55:08;;;;;;;;;;;9.60;99.90;;;;;;4953960;29;20025;-74
2022/12/25 08:57:36;;;;;;;;;;;9.50;99.90;;;;;;4953705;29;20026;-71
2022/12/25 09:00:06;;;;;;;;;;;9.50;99.90;;;;;;4997613;28;19938;-73
2022/12/25 09:02:33;;;;;;;;;;;9.40;99.90;;;;;;4978664;28;19926;-73
2022/12/25 09:05:02;;;;;;;;;;;9.40;99.90;;;;;;4972845;28;19926;-74
2022/12/25 09:07:29;;;;;;;;;;;9.40;99.90;;;;;;4972990;28;19930;-74
2022/12/25 09:09:57;;;;;;;;;;;9.40;99.90;;;;;;4971659;28;20028;-74
2022/12/25 09:12:25;;;;;;;;;;;9.50;99.90;;;;;;4972792;28;19996;-74
2022/12/25 09:14:52;;;;;;;;;;;9.60;99.90;;;;;;4972667;28;19944;-74
2022/12/25 09:17:21;;;;;;;;;;;9.70;99.90;;;;;;4964439;28;20013;-75
2022/12/25 09:19:49;;;;;;;;;;;9.80;99.90;;;;;;4954255;28;19932;-74
2022/12/25 09:22:18;;;;;;;;;;;9.80;99.90;;;;;;4953312;29;20374;-75
2022/12/25 09:24:45;;;;;;;;;;;9.90;99.90;;;;;;4953118;29;19973;-74
2022/12/25 09:27:13;;;;;;;;;;;9.80;99.90;;;;;;4965962;28;19949;-74
2022/12/25 09:29:41;;;;;;;;;;;9.70;99.90;;;;;;4992162;28;19990;-73
2022/12/25 09:32:08;;;;;;;;;;;9.70;99.90;;;;;;5032108;28;19931;-73
2022/12/25 09:34:37;;;;;;;;;;;9.70;99.90;;;;;;4965612;28;19980;-74
2022/12/25 09:37:05;;;;;;;;;;;9.60;99.90;;;;;;4957291;28;20022;-74
2022/12/25 09:39:33;;;;;;;;;;;9.60;99.90;;;;;;4971771;28;19926;-73
2022/12/25 09:42:02;;;;;;;;;;;9.70;99.90;;;;;;4972496;28;19932;-73
2022/12/25 09:44:32;;;;;;;;;;;9.70;99.90;;;;;;4972041;28;19980;-73
2022/12/25 09:47:01;;;;;;;;;;;9.60;99.90;;;;;;4972343;28;20033;-74
2022/12/25 09:49:32;;;;;;;;;;;9.70;99.90;;;;;;4959745;28;20302;-73
2022/12/25 09:52:03;;;;;;;;;;;9.80;99.90;;;;;;4969965;28;20366;-74
2022/12/25 09:54:36;;;;;;;;;;;9.80;99.90;;;;;;4972004;28;19932;-73
2022/12/25 09:57:05;;;;;;;;;;;9.80;99.90;;;;;;4968628;28;20491;-73
2022/12/25 09:59:33;;;;;;;;;;;9.80;99.90;;;;;;4970857;28;20031;-73
2022/12/25 10:02:10;;;;;;;;;;;9.80;99.90;;;;;;5023267;28;19946;-73
2022/12/25 10:04:47;;;;;;;;;;;9.70;99.90;;;;;;4971810;28;19926;-74
2022/12/25 10:07:19;;;;;;;;;;;9.70;99.90;;;;;;4972067;28;19934;-73
2022/12/25 10:09:53;;;;;;;;;;;9.70;99.90;;;;;;4961891;28;20025;-74
2022/12/25 10:12:29;;;;;;;;;;;9.70;99.90;;;;;;4952671;29;19970;-74
2022/12/25 10:15:03;;;;;;;;;;;9.80;99.90;;;;;;4952590;29;19935;-73
2022/12/25 10:17:36;;;;;;;;;;;9.90;99.90;;;;;;4967420;28;19926;-74
2022/12/25 10:20:10;;;;;;;;;;;9.90;99.90;;;;;;4971283;28;19926;-74
2022/12/25 10:22:40;;;;;;;;;;;10.10;99.90;;;;;;4970246;28;20107;-74
2022/12/25 10:25:14;;;;;;;;;;;10.20;99.90;;;;;;4971653;28;19940;-73
2022/12/25 10:27:42;;;;;;;;;;;10.30;99.90;;;;;;4954984;28;19928;-73
2022/12/25 10:30:14;;;;;;;;;;;10.50;99.90;;;;;;5006915;28;19924;-73
2022/12/25 10:32:42;;;;;;;;;;;10.60;99.90;;;;;;5027342;28;19956;-74
2022/12/25 10:35:11;;;;;;;;;;;10.60;99.90;;;;;;4989734;28;20429;-74
2022/12/25 10:37:40;;;;;;;;;;;10.60;99.90;;;;;;4955127;28;20021;-74
2022/12/25 10:40:19;;;;;;;;;;;10.60;99.90;;;;;;4970773;28;20009;-74
2022/12/25 10:42:49;;;;;;;;;;;10.70;99.90;;;;;;4970044;28;19926;-73
2022/12/25 10:45:17;;;;;;;;;;;10.70;99.90;;;;;;4961268;28;19933;-74
2022/12/25 10:47:45;;;;;;;;;;;10.60;99.90;;;;;;4971232;28;20032;-74
2022/12/25 10:50:18;;;;;;;;;;;10.60;99.90;;;;;;4970743;28;20419;-74
2022/12/25 10:52:50;;;;;;;;;;;10.70;99.90;;;;;;4971302;28;20389;-74
2022/12/25 10:55:19;;;;;;;;;;;10.70;99.90;;;;;;4960820;28;19960;-74
2022/12/25 10:57:56;;;;;;;;;;;10.80;99.90;;;;;;4952129;29;20399;-74
2022/12/25 11:00:25;;;;;;;;;;;10.90;99.90;;;;;;4978082;28;20037;-73
2022/12/25 11:02:53;;;;;;;;;;;10.90;99.90;;;;;;4998414;28;19976;-73
2022/12/25 11:05:26;;;;;;;;;;;11.00;99.90;;;;;;4958674;28;20020;-74
2022/12/25 11:07:57;;;;;;;;;;;11.00;99.90;;;;;;4967509;28;19927;-74
2022/12/25 11:10:26;;;;;;;;;;;11.10;99.90;;;;;;4962281;28;20350;-74
2022/12/25 11:12:53;;;;;;;;;;;11.10;99.90;;;;;;4969568;28;19969;-73
2022/12/25 11:15:34;;;;;;;;;;;11.20;99.90;;;;;;4971150;28;19976;-74
2022/12/25 11:18:03;;;;;;;;;;;11.30;99.90;;;;;;4959371;28;19926;-74
2022/12/25 11:20:32;;;;;;;;;;;11.30;99.90;;;;;;4951050;29;20017;-74
2022/12/25 11:23:01;;;;;;;;;;;11.40;99.90;;;;;;4951534;29;19930;-73
2022/12/25 11:25:28;;;;;;;;;;;11.40;99.90;;;;;;4959117;28;20438;-73
2022/12/25 11:27:57;;;;;;;;;;;11.30;99.90;;;;;;4969178;28;19962;-74
2022/12/25 11:30:25;;;;;;;;;;;11.20;99.90;;;;;;5011941;28;20016;-74
2022/12/25 11:32:55;;;;;;;;;;;11.20;99.90;;;;;;4957274;28;19926;-73
2022/12/25 11:35:27;;;;;;;;;;;11.20;99.90;;;;;;5035429;28;19985;-73
2022/12/25 11:37:55;;;;;;;;;;;11.30;99.90;;;;;;5071623;28;19931;-74
2022/12/25 11:40:27;;;;;;;;;;;11.20;99.90;;;;;;5071836;28;20011;-73
2022/12/25 11:42:57;;;;;;;;;;;11.10;99.90;;;;;;4956418;28;20021;-73
2022/12/25 11:45:34;;;;;;;;;;;11.20;99.90;;;;;;4951183;29;20011;-74
2022/12/25 11:48:05;;;;;;;;;;;11.10;99.90;;;;;;4951108;29;19930;-74
2022/12/25 11:50:35;;;;;;;;;;;11.20;99.90;;;;;;4950630;28;20483;-73
2022/12/25 11:53:04;;;;;;;;;;;11.20;99.90;;;;;;4951385;28;20319;-73
2022/12/25 11:55:37;;;;;;;;;;;11.30;99.90;;;;;;4951253;28;19969;-73
2022/12/25 11:58:11;;;;;;;;;;;11.40;99.90;;;;;;4952274;28;20351;-73
2022/12/25 12:00:40;;;;;;;;;;;11.50;99.90;;;;;;4985413;28;20357;-73
2022/12/25 12:03:13;;;;;;;;;;;11.60;99.90;;;;;;4990247;28;20028;-73
2022/12/25 12:05:44;;;;;;;;;;;11.70;99.90;;;;;;4970113;28;19926;-73
2022/12/25 12:08:13;;;;;;;;;;;11.80;99.90;;;;;;4965886;28;20299;-73
2022/12/25 12:10:49;;;;;;;;;;;11.80;99.90;;;;;;4950419;29;20017;-73
2022/12/25 12:13:26;;;;;;;;;;;11.80;99.90;;;;;;4956461;28;20013;-72
2022/12/25 12:15:54;;;;;;;;;;;11.90;99.90;;;;;;4969886;28;19980;-74
2022/12/25 12:18:23;;;;;;;;;;;11.90;99.90;;;;;;4970221;28;19926;-73
2022/12/25 12:21:01;;;;;;;;;;;12.00;99.90;;;;;;4969502;28;19932;-73
2022/12/25 12:23:30;;;;;;;;;;;11.90;99.90;;;;;;4969710;28;19952;-73
2022/12/25 12:25:59;;;;;;;;;;;11.90;99.90;;;;;;4961810;28;19990;-72
2022/12/25 12:28:29;;;;;;;;;;;11.80;99.90;;;;;;4969527;28;19926;-72
2022/12/25 12:31:00;;;;;;;;;;;11.90;99.90;;;;;;5009690;28;20025;-74
2022/12/25 12:33:31;;;;;;;;;;;11.80;99.90;;;;;;5064879;28;19924;-73
2022/12/25 12:36:01;;;;;;;;;;;11.70;99.90;;;;;;5071272;28;20039;-72
2022/12/25 12:38:30;;;;;;;;;;;11.70;99.90;;;;;;5070948;28;19979;-73
2022/12/25 12:41:03;;;;;;;;;;;11.70;99.90;;;;;;5069536;28;20023;-73
2022/12/25 12:43:35;;;;;;;;;;;11.80;99.90;;;;;;4969479;28;20399;-74
2022/12/25 12:46:06;;;;;;;;;;;11.70;99.90;;;;;;4964281;28;19980;-73
2022/12/25 12:48:41;;;;;;;;;;;11.70;99.90;;;;;;4950178;29;19954;-73
2022/12/25 12:51:10;;;;;;;;;;;11.70;99.90;;;;;;4948575;29;20346;-73
2022/12/25 12:53:39;;;;;;;;;;;11.60;99.90;;;;;;4952120;28;20029;-74
2022/12/25 12:56:12;;;;;;;;;;;11.80;99.90;;;;;;4959247;28;20403;-73
2022/12/25 12:58:44;;;;;;;;;;;11.70;99.90;;;;;;4950854;28;20311;-73
2022/12/25 13:01:18;;;;;;;;;;;11.60;99.90;;;;;;5009876;28;20017;-73
2022/12/25 13:03:56;;;;;;;;;;;11.70;99.90;;;;;;4950282;28;19933;-73
2022/12/25 13:06:27;;;;;;;;;;;11.70;99.90;;;;;;4950356;28;19933;-73
2022/12/25 13:09:00;;;;;;;;;;;11.80;99.90;;;;;;4952245;28;19927;-73
2022/12/25 13:11:31;;;;;;;;;;;11.80;99.90;;;;;;4968977;28;19934;-73
2022/12/25 13:14:01;;;;;;;;;;;11.90;99.90;;;;;;4969347;28;20379;-73
2022/12/25 13:16:30;;;;;;;;;;;12.00;99.90;;;;;;4962285;28;19926;-73
2022/12/25 13:19:00;;;;;;;;;;;12.00;99.90;;;;;;4950302;29;19939;-73
2022/12/25 13:21:28;;;;;;;;;;;12.00;99.90;;;;;;4951846;28;20719;-73
2022/12/25 13:23:57;;;;;;;;;;;12.00;99.90;;;;;;4969569;28;19926;-73
2022/12/25 13:26:25;;;;;;;;;;;12.00;99.90;;;;;;4969101;28;19936;-73
2022/12/25 13:28:54;;;;;;;;;;;12.00;99.90;;;;;;4969823;28;19926;-73
2022/12/25 13:31:23;;;;;;;;;;;11.90;99.90;;;;;;5010430;28;20348;-73
2022/12/25 13:33:55;;;;;;;;;;;11.80;99.90;;;;;;4959951;28;19941;-73
2022/12/25 13:36:22;;;;;;;;;;;11.70;99.90;;;;;;4951049;29;19927;-72
2022/12/25 13:38:51;;;;;;;;;;;11.80;99.90;;;;;;4953033;28;19927;-73
2022/12/25 13:44:14;;;;;;;;;;;11.70;99.90;;;;;;4972550;28;19930;-73
2022/12/25 13:46:42;;;;;;;;;;;11.60;99.90;;;;;;4971468;28;19926;-73
2022/12/25 13:49:13;;;;;;;;;;;11.70;99.90;;;;;;4980963;28;20296;-73
2022/12/25 13:51:41;;;;;;;;;;;11.70;99.90;;;;;;4969215;28;20021;-73
2022/12/25 13:54:10;;;;;;;;;;;11.70;99.90;;;;;;4972285;28;19933;-73
2022/12/25 13:56:45;;;;;;;;;;;11.70;99.90;;;;;;4972025;28;19933;-74
2022/12/25 13:59:15;;;;;;;;;;;11.70;99.90;;;;;;4965383;28;19927;-73
2022/12/25 14:01:43;;;;;;;;;;;11.70;99.90;;;;;;5030876;28;19924;-74
2022/12/25 14:04:14;;;;;;;;;;;11.70;99.90;;;;;;5043531;28;19933;-73
2022/12/25 14:06:41;;;;;;;;;;;11.60;99.90;;;;;;4959635;28;20016;-72
2022/12/25 14:09:09;;;;;;;;;;;11.70;99.90;;;;;;4952251;28;20399;-72
2022/12/25 14:11:38;;;;;;;;;;;11.70;99.90;;;;;;4969762;28;20017;-73
2022/12/25 14:14:07;;;;;;;;;;;11.70;99.90;;;;;;4969922;28;20021;-72
2022/12/25 14:16:36;;;;;;;;;;;11.70;99.90;;;;;;4969717;28;20851;-73
2022/12/25 14:19:19;;;;;;;;;;;11.70;99.90;;;;;;4969884;28;19926;-73
2022/12/25 14:21:54;;;;;;;;;;;11.70;99.90;;;;;;4969527;28;19949;-73
2022/12/25 14:24:23;;;;;;;;;;;11.70;99.90;;;;;;4963995;28;19927;-73
2022/12/25 14:26:56;;;;;;;;;;;11.70;99.90;;;;;;4951723;28;19931;-73
2022/12/25 14:29:23;;;;;;;;;;;11.70;99.90;;;;;;4959590;28;20021;-73
2022/12/25 14:31:59;;;;;;;;;;;11.70;99.90;;;;;;4969238;28;20455;-73
2022/12/25 14:34:27;;;;;;;;;;;11.70;99.90;;;;;;4951891;28;20021;-73
2022/12/25 14:36:55;;;;;;;;;;;11.70;99.90;;;;;;4969854;28;20353;-73
2022/12/25 14:39:26;;;;;;;;;;;11.60;99.90;;;;;;4969410;28;19961;-73
2022/12/25 14:41:54;;;;;;;;;;;11.60;99.90;;;;;;4964979;28;19926;-74
2022/12/25 14:44:27;;;;;;;;;;;11.50;99.90;;;;;;4969536;28;19926;-73
2022/12/25 14:47:04;;;;;;;;;;;11.50;99.90;;;;;;4969483;28;20018;-72
2022/12/25 14:49:32;;;;;;;;;;;11.40;99.90;;;;;;4969200;28;19956;-73
2022/12/25 14:52:02;;;;;;;;;;;11.30;99.90;;;;;;4970089;28;19972;-73
2022/12/25 14:54:30;;;;;;;;;;;11.40;99.90;;;;;;4955422;28;19949;-73
2022/12/25 14:56:58;;;;;;;;;;;11.30;99.90;;;;;;4953943;28;20423;-73
2022/12/25 14:59:26;;;;;;;;;;;11.30;99.90;;;;;;4968349;28;20017;-73
2022/12/25 15:01:55;;;;;;;;;;;11.40;99.90;;;;;;4965307;28;20391;-73
2022/12/25 15:04:26;;;;;;;;;;;11.30;99.90;;;;;;4952239;28;19949;-74
2022/12/25 15:06:55;;;;;;;;;;;11.40;99.90;;;;;;4968087;28;20778;-72
2022/12/25 15:09:23;;;;;;;;;;;11.30;99.90;;;;;;4975008;28;19930;-72
2022/12/25 15:11:52;;;;;;;;;;;11.30;99.90;;;;;;4970013;28;19926;-71
2022/12/25 15:14:19;;;;;;;;;;;11.30;99.90;;;;;;4975955;28;19932;-72
2022/12/25 15:16:48;;;;;;;;;;;11.30;99.90;;;;;;4975943;28;20737;-72
2022/12/25 15:19:17;;;;;;;;;;;11.30;99.90;;;;;;4971084;28;19926;-72
2022/12/25 15:21:53;;;;;;;;;;;11.20;99.90;;;;;;4970479;28;20017;-73
2022/12/25 15:24:21;;;;;;;;;;;11.20;99.90;;;;;;4971461;28;19962;-73
2022/12/25 15:26:48;;;;;;;;;;;11.20;99.90;;;;;;4967287;28;20379;-72
2022/12/25 15:29:23;;;;;;;;;;;11.20;99.90;;;;;;4987132;28;19934;-72
2022/12/25 15:32:15;;;;;;;;;;;11.20;99.90;;;;;;4998212;28;19934;-72
2022/12/25 15:34:45;;;;;;;;;;;11.10;99.90;;;;;;4990159;28;19926;-72
2022/12/25 15:37:14;;;;;;;;;;;11.10;99.90;;;;;;4983819;28;19926;-71
2022/12/25 15:39:42;;;;;;;;;;;11.10;99.90;;;;;;4968971;28;20082;-72
2022/12/25 15:42:13;;;;;;;;;;;11.00;99.90;;;;;;4970993;28;20033;-72
2022/12/25 15:44:41;;;;;;;;;;;11.00;99.90;;;;;;4970770;28;20264;-72
2022/12/25 15:47:11;;;;;;;;;;;11.00;99.90;;;;;;4969562;28;21287;-72
2022/12/25 15:49:39;;;;;;;;;;;11.00;99.90;;;;;;4961427;28;19954;-70
2022/12/25 15:52:08;;;;;;;;;;;10.90;99.90;;;;;;4977273;28;19933;-72
2022/12/25 15:54:37;;;;;;;;;;;10.90;99.90;;;;;;4978212;28;19926;-73
2022/12/25 15:57:06;;;;;;;;;;;10.90;99.90;;;;;;4958973;28;19932;-72
2022/12/25 15:59:34;;;;;;;;;;;10.90;99.90;;;;;;4999965;28;20027;-73
2022/12/25 16:02:01;;;;;;;;;;;10.90;99.90;;;;;;5029624;28;19925;-73
2022/12/25 16:04:30;;;;;;;;;;;10.80;99.90;;;;;;5071519;28;19929;-73
2022/12/25 16:06:58;;;;;;;;;;;10.80;99.90;;;;;;4999111;28;19944;-72
2022/12/25 16:09:26;;;;;;;;;;;10.80;99.90;;;;;;4961711;28;20376;-72
2022/12/25 16:11:55;;;;;;;;;;;10.80;99.90;;;;;;4980245;28;19926;-73
2022/12/25 16:14:23;;;;;;;;;;;10.70;99.90;;;;;;4950964;29;19966;-72
2022/12/25 16:16:51;;;;;;;;;;;10.70;99.90;;;;;;4950551;28;19926;-71
2022/12/25 16:19:18;;;;;;;;;;;10.60;99.90;;;;;;4950763;29;20493;-72
2022/12/25 16:21:46;;;;;;;;;;;10.50;99.90;;;;;;4950335;29;19958;-71